Time;durP1;ratioP1;P1;durP2;ratioP2;P2;SDS_P1;SDS_P2;PMS_P1;PMS_P2;Temp;Humidity;BMP_temperature;BMP_pressure;BME280_temperature;BME280_humidity;BME280_pressure;Samples;Min_cycle;Max_cycle;Signal;HPM_P1;HPM_P2
2023/03/21 00:01:58;;;;;;;62.60;33.13;;;;;;;9.03;100.00;101490.88;5008216;28;20034;-75
2023/03/21 00:04:25;;;;;;;63.58;33.35;;;;;;;9.03;100.00;101481.09;5020299;28;20576;-78
2023/03/21 00:06:52;;;;;;;70.72;36.05;;;;;;;9.06;100.00;101480.13;5016509;28;20046;-77
2023/03/21 00:09:19;;;;;;;72.18;35.45;;;;;;;9.07;100.00;101481.84;5012942;28;20136;-77
2023/03/21 00:11:45;;;;;;;66.93;33.15;;;;;;;9.09;100.00;101480.00;5015839;28;20069;-77
2023/03/21 00:14:17;;;;;;;69.45;35.28;;;;;;;9.06;100.00;101473.00;5021888;28;20044;-78
2023/03/21 00:16:44;;;;;;;72.47;37.35;;;;;;;9.04;100.00;101479.28;5017714;28;20128;-76
2023/03/21 00:19:11;;;;;;;72.47;38.53;;;;;;;9.05;100.00;101473.06;5038115;28;20033;-78
2023/03/21 00:21:41;;;;;;;72.15;37.05;;;;;;;9.04;100.00;101474.84;5022142;28;20218;-78
2023/03/21 00:24:07;;;;;;;70.88;36.40;;;;;;;9.04;100.00;101466.88;5023190;28;20033;-79
2023/03/21 00:26:34;;;;;;;78.75;38.22;;;;;;;9.05;100.00;101473.06;5019236;28;20268;-77
2023/03/21 00:29:00;;;;;;;69.50;36.20;;;;;;;9.02;100.00;101475.81;5024749;28;20049;-76
2023/03/21 00:31:27;;;;;;;77.65;36.95;;;;;;;9.01;100.00;101466.97;5018528;28;20029;-78
2023/03/21 00:33:54;;;;;;;74.60;37.15;;;;;;;9.03;100.00;101474.91;5021661;28;20029;-79
2023/03/21 00:36:24;;;;;;;82.80;38.72;;;;;;;8.99;100.00;101468.84;5019277;28;20597;-78
2023/03/21 00:38:51;;;;;;;76.72;37.33;;;;;;;8.99;100.00;101474.16;5019130;28;20030;-78
2023/03/21 00:41:17;;;;;;;81.63;39.95;;;;;;;8.99;100.00;101458.19;5014998;28;20113;-79
2023/03/21 00:43:45;;;;;;;80.45;39.38;;;;;;;8.99;100.00;101467.97;5003223;28;20037;-77
2023/03/21 00:46:11;;;;;;;79.15;38.15;;;;;;;8.98;100.00;101464.41;5024858;28;20372;-79
2023/03/21 00:48:39;;;;;;;78.68;37.90;;;;;;;8.97;100.00;101461.84;5014735;28;20551;-76
2023/03/21 00:51:14;;;;;;;88.60;39.33;;;;;;;8.99;100.00;101462.66;5017766;28;20112;-80
2023/03/21 00:53:41;;;;;;;85.40;37.65;;;;;;;8.98;100.00;101452.91;5014356;28;20038;-81
2023/03/21 00:56:07;;;;;;;80.45;37.53;;;;;;;8.97;100.00;101457.38;5015853;28;20052;-78
2023/03/21 00:58:34;;;;;;;86.75;38.40;;;;;;;8.98;100.00;101455.56;5001123;28;20049;-79
2023/03/21 01:01:01;;;;;;;82.18;37.67;;;;;;;8.99;100.00;101452.84;5008513;28;20025;-79
2023/03/21 01:03:28;;;;;;;80.10;36.92;;;;;;;8.98;100.00;101445.78;5019993;28;20061;-78
2023/03/21 01:06:05;;;;;;;81.63;38.45;;;;;;;8.98;100.00;101440.44;5014024;28;20036;-79
2023/03/21 01:08:34;;;;;;;94.80;41.03;;;;;;;8.97;100.00;101437.88;5010226;28;20053;-81
2023/03/21 01:11:06;;;;;;;87.80;38.50;;;;;;;8.98;100.00;101428.94;5014073;28;20112;-80
2023/03/21 01:13:32;;;;;;;83.47;39.85;;;;;;;8.99;100.00;101428.03;5018242;28;20425;-79
2023/03/21 01:15:59;;;;;;;84.28;39.08;;;;;;;8.96;100.00;101423.66;5015185;28;20033;-81
2023/03/21 01:18:28;;;;;;;79.72;40.00;;;;;;;9.00;100.00;101425.31;5004371;28;20072;-78
2023/03/21 01:20:56;;;;;;;79.57;37.97;;;;;;;9.02;100.00;101425.22;5016367;28;20036;-79
2023/03/21 01:23:23;;;;;;;81.18;39.20;;;;;;;9.02;100.00;101417.22;5015733;28;20069;-78
2023/03/21 01:25:52;;;;;;;85.30;40.08;;;;;;;9.00;100.00;101416.44;5001074;28;20042;-78
2023/03/21 01:28:18;;;;;;;84.97;40.72;;;;;;;8.98;100.00;101419.16;5008036;28;20042;-78
2023/03/21 01:30:49;;;;;;;87.65;42.10;;;;;;;9.00;100.00;101411.09;5010670;28;20103;-78
2023/03/21 01:33:17;;;;;;;86.32;43.00;;;;;;;8.99;100.00;101412.91;5014203;28;20045;-79
2023/03/21 01:35:44;;;;;;;84.85;42.10;;;;;;;8.99;100.00;101410.25;5016219;28;20491;-78
2023/03/21 01:38:10;;;;;;;89.32;44.35;;;;;;;8.97;100.00;101400.59;5017873;28;20112;-78
2023/03/21 01:40:39;;;;;;;93.57;43.35;;;;;;;8.97;100.00;101406.78;5009040;28;20060;-77
2023/03/21 01:43:32;;;;;;;93.35;45.42;;;;;;;8.99;100.00;101401.41;5003322;28;20465;-82
2023/03/21 01:46:27;;;;;;;93.70;45.45;;;;;;;8.98;100.00;101397.84;5014035;28;20395;-77
2023/03/21 01:49:14;;;;;;;93.78;44.08;;;;;;;8.96;100.00;101398.84;5024507;28;20095;-81
2023/03/21 01:51:49;;;;;;;98.57;45.85;;;;;;;8.97;100.00;101395.28;5021140;28;20114;-77
2023/03/21 01:54:25;;;;;;;101.15;47.15;;;;;;;8.95;100.00;101390.00;5011028;28;20395;-80
2023/03/21 01:56:54;;;;;;;104.20;46.17;;;;;;;8.96;100.00;101394.38;5008331;28;20025;-79
2023/03/21 01:59:27;;;;;;;106.28;47.67;;;;;;;8.97;100.00;101389.94;4998344;28;20037;-77
2023/03/21 02:02:26;;;;;;;107.72;48.97;;;;;;;8.95;100.00;101387.34;5013786;28;20026;-78
2023/03/21 02:05:08;;;;;;;124.38;48.95;;;;;;;8.95;100.00;101381.16;5002622;28;20088;-78
2023/03/21 02:07:36;;;;;;;107.72;48.05;;;;;;;8.93;100.00;101378.53;4981680;28;20034;-78
2023/03/21 02:10:08;;;;;;;111.28;49.08;;;;;;;8.92;100.00;101377.66;5013508;28;20029;-78
2023/03/21 02:12:37;;;;;;;123.20;50.50;;;;;;;8.90;100.00;101368.88;5006669;28;20033;-78
2023/03/21 02:15:06;;;;;;;120.80;51.03;;;;;;;8.93;100.00;101371.41;5005710;28;20065;-79
2023/03/21 02:18:03;;;;;;;113.47;50.38;;;;;;;8.73;100.00;101334.06;5006964;28;20533;-78
2023/03/21 02:20:48;;;;;;;116.22;50.55;;;;;;;8.91;100.00;101354.63;5016198;28;20036;-80
2023/03/21 02:23:36;;;;;;;115.43;49.10;;;;;;;8.91;100.00;101356.44;5020311;28;20502;-78
2023/03/21 02:26:26;;;;;;;124.43;50.58;;;;;;;8.91;100.00;101351.13;5011409;28;20505;-77
2023/03/21 02:29:06;;;;;;;110.85;50.05;;;;;;;8.89;100.00;101351.16;5021309;28;20564;-79
2023/03/21 02:31:48;;;;;;;104.55;48.78;;;;;;;8.90;100.00;101352.88;5016178;28;20112;-78
2023/03/21 02:34:17;;;;;;;105.15;46.72;;;;;;;8.89;100.00;101358.28;5004192;28;20505;-80
2023/03/21 02:36:56;;;;;;;105.38;46.03;;;;;;;8.88;100.00;101346.75;5016921;28;20033;-80
2023/03/21 02:39:44;;;;;;;104.10;45.05;;;;;;;8.88;100.00;101349.44;5028662;28;20041;-78
2023/03/21 02:42:23;;;;;;;109.68;43.03;;;;;;;8.89;100.00;101344.97;5034574;28;20037;-78
2023/03/21 02:45:08;;;;;;;105.85;41.83;;;;;;;8.86;100.00;101343.28;5009293;28;20395;-77
2023/03/21 02:47:51;;;;;;;100.57;41.78;;;;;;;8.85;100.00;101338.91;4998046;28;20044;-78
2023/03/21 02:50:47;;;;;;;101.20;43.08;;;;;;;8.84;100.00;101334.50;5003561;28;20038;-78
2023/03/21 02:53:19;;;;;;;94.20;41.25;;;;;;;8.84;100.00;101326.53;5014163;28;20040;-79
2023/03/21 02:55:47;;;;;;;93.93;43.40;;;;;;;8.83;100.00;101331.91;5000517;28;20041;-78
2023/03/21 02:58:18;;;;;;;93.03;40.60;;;;;;;8.80;100.00;101330.25;5016016;28;20166;-78
2023/03/21 03:00:49;;;;;;;85.63;37.45;;;;;;;8.80;100.00;101332.03;5016399;28;20032;-78
2023/03/21 03:03:27;;;;;;;88.38;38.30;;;;;;;8.81;100.00;101321.31;5006986;28;20037;-79
2023/03/21 03:05:56;;;;;;;86.30;38.83;;;;;;;8.81;100.00;101323.13;5001105;28;20083;-78
2023/03/21 03:08:59;;;;;;;80.82;38.15;;;;;;;8.81;100.00;101328.44;5013361;28;20372;-81
2023/03/21 03:11:38;;;;;;;81.50;37.78;;;;;;;8.81;100.00;101333.75;5014987;28;20049;-79
2023/03/21 03:14:23;;;;;;;73.88;35.53;;;;;;;8.77;100.00;101330.34;5013020;28;20037;-78
2023/03/21 03:17:36;;;;;;;73.93;35.72;;;;;;;8.76;100.00;101319.75;5007513;28;20056;-78
2023/03/21 03:20:24;;;;;;;71.85;34.58;;;;;;;8.73;100.00;101324.28;5007009;28;20029;-82
2023/03/21 03:22:58;;;;;;;73.30;35.33;;;;;;;8.72;100.00;101321.69;4998499;28;20025;-82
2023/03/21 03:26:07;;;;;;;69.45;34.92;;;;;;;8.73;100.00;101318.09;5015663;28;20057;-80
2023/03/21 03:28:39;;;;;;;68.00;33.40;;;;;;;8.73;100.00;101318.09;4955956;28;20067;-81
2023/03/21 03:31:13;;;;;;;69.80;31.83;;;;;;;8.70;100.00;101320.88;5008127;28;20309;-80
2023/03/21 03:33:51;;;;;;;61.35;29.05;;;;;;;8.71;100.00;101319.97;5007922;28;20038;-84
2023/03/21 03:36:18;;;;;;;62.90;29.63;;;;;;;8.71;100.00;101315.50;4999728;28;20029;-80
2023/03/21 03:38:46;;;;;;;62.15;29.45;;;;;;;8.69;100.00;101311.19;5006853;28;20061;-80
2023/03/21 03:41:17;;;;;;;60.03;29.30;;;;;;;8.70;100.00;101315.56;5007457;28;20550;-79
2023/03/21 03:43:54;;;;;;;69.60;31.05;;;;;;;8.71;100.00;101309.31;5000639;28;20025;-78
2023/03/21 03:46:23;;;;;;;;;;;;;;;8.72;100.00;101311.03;5014410;28;20030;-78
2023/03/21 03:48:55;;;;;;;72.50;32.42;;;;;;;8.72;100.00;101305.69;5019848;28;20030;-80
2023/03/21 03:51:27;;;;;;;64.45;31.73;;;;;;;8.73;100.00;101304.78;5015350;28;20037;-78
2023/03/21 03:54:33;;;;;;;77.60;34.92;;;;;;;8.73;100.00;101303.00;4993024;28;20120;-79
2023/03/21 03:57:03;;;;;;;79.32;34.00;;;;;;;8.73;100.00;101303.00;5006380;28;20467;-78
2023/03/21 03:59:29;;;;;;;75.03;34.92;;;;;;;8.72;100.00;101301.28;5001854;28;20045;-78
2023/03/21 04:02:16;;;;;;;77.93;34.17;;;;;;;8.75;100.00;101299.41;5019493;28;20041;-78
2023/03/21 04:04:45;;;;;;;75.95;35.63;;;;;;;8.57;100.00;101269.06;5004882;28;20030;-79
2023/03/21 04:07:13;;;;;;;73.57;33.20;;;;;;;8.73;100.00;101296.81;5011985;28;20041;-80
2023/03/21 04:09:41;;;;;;;76.10;32.28;;;;;;;8.73;100.00;101307.44;5003896;28;20034;-79
2023/03/21 04:12:07;;;;;;;70.13;31.60;;;;;;;8.73;100.00;101299.47;5011369;28;20041;-81
2023/03/21 04:14:36;;;;;;;67.10;31.40;;;;;;;8.66;100.00;101290.84;5004719;28;20164;-79
2023/03/21 04:17:03;;;;;;;69.85;29.67;;;;;;;8.66;100.00;101293.50;5003015;28;20037;-80
2023/03/21 04:19:31;;;;;;;73.82;32.22;;;;;;;8.66;100.00;101290.84;4998191;28;20040;-79
2023/03/21 04:21:58;;;;;;;66.10;29.83;;;;;;;8.67;100.00;101286.41;5004056;28;20026;-78
2023/03/21 04:24:25;;;;;;;74.70;31.70;;;;;;;8.66;100.00;101292.66;4995090;28;20041;-81
2023/03/21 04:26:52;;;;;;;67.60;32.25;;;;;;;8.65;100.00;101290.94;5006864;28;20036;-80
2023/03/21 04:29:36;;;;;;;79.53;33.08;;;;;;;8.65;100.00;101282.94;5012184;28;20037;-79
2023/03/21 04:32:03;;;;;;;70.00;32.13;;;;;;;8.67;100.00;101281.09;5022779;28;20025;-79
2023/03/21 04:34:29;;;;;;;80.88;35.95;;;;;;;8.64;100.00;101273.22;5006735;28;20042;-80
2023/03/21 04:37:00;;;;;;;80.10;35.97;;;;;;;8.65;100.00;101282.94;5006367;28;20554;-79
2023/03/21 04:39:26;;;;;;;79.63;35.03;;;;;;;8.65;100.00;101286.47;5005409;28;20430;-79
2023/03/21 04:41:53;;;;;;;83.78;36.58;;;;;;;8.65;100.00;101282.94;5023333;28;20034;-79
2023/03/21 04:44:21;;;;;;;78.70;36.83;;;;;;;8.66;100.00;101287.34;5020825;28;20198;-79
2023/03/21 04:46:49;;;;;;;95.05;40.33;;;;;;;8.64;100.00;101286.53;5000856;28;20045;-79
2023/03/21 04:49:15;;;;;;;88.18;39.10;;;;;;;8.64;100.00;101279.41;5007315;28;20124;-79
2023/03/21 04:51:44;;;;;;;95.57;41.13;;;;;;;8.65;100.00;101283.81;5012707;28;20525;-79
2023/03/21 04:54:12;;;;;;;92.35;43.17;;;;;;;8.62;100.00;101281.25;5006041;28;20041;-81
2023/03/21 04:56:39;;;;;;;93.25;43.85;;;;;;;8.63;100.00;101277.69;4998259;28;20121;-79
2023/03/21 04:59:09;;;;;;;93.18;42.47;;;;;;;8.65;100.00;101270.50;5031722;28;20037;-80
2023/03/21 05:01:36;;;;;;;96.17;41.87;;;;;;;8.61;100.00;101274.22;5009096;28;20027;-80
2023/03/21 05:04:03;;;;;;;95.97;43.13;;;;;;;8.61;100.00;101276.00;5015959;28;20803;-80
2023/03/21 05:06:32;;;;;;;98.30;44.25;;;;;;;8.61;100.00;101273.34;5004918;28;20096;-80
2023/03/21 05:09:00;;;;;;;92.95;41.55;;;;;;;8.60;100.00;101271.63;5020664;28;20030;-81
2023/03/21 05:11:29;;;;;;;91.20;41.45;;;;;;;8.57;100.00;101272.59;5014945;28;20033;-80
2023/03/21 05:13:58;;;;;;;92.18;42.30;;;;;;;8.56;100.00;101268.22;4999650;28;20041;-80
2023/03/21 05:16:25;;;;;;;88.80;42.60;;;;;;;8.55;100.00;101271.78;5008185;28;20033;-80
2023/03/21 05:18:54;;;;;;;93.88;43.58;;;;;;;8.56;100.00;101278.00;4999493;28;20037;-79
2023/03/21 05:21:21;;;;;;;89.15;40.88;;;;;;;8.53;100.00;101261.19;5016338;28;20849;-80
2023/03/21 05:23:55;;;;;;;94.38;42.10;;;;;;;8.51;100.00;101263.06;5009413;28;20040;-80
2023/03/21 05:26:23;;;;;;;90.22;41.55;;;;;;;8.50;100.00;101264.00;4988303;28;20050;-80
2023/03/21 05:28:59;;;;;;;96.07;42.47;;;;;;;8.50;100.00;101258.69;5007148;28;20188;-79
2023/03/21 05:31:25;;;;;;;85.43;41.03;;;;;;;8.50;100.00;101257.81;5007817;28;20557;-78
2023/03/21 05:34:02;;;;;;;93.75;43.20;;;;;;;8.50;100.00;101263.16;5017408;28;20440;-81
2023/03/21 05:36:29;;;;;;;94.75;41.88;;;;;;;8.51;100.00;101259.53;5022815;28;20200;-78
2023/03/21 05:38:55;;;;;;;102.25;43.58;;;;;;;8.49;100.00;101264.06;4988777;28;20044;-78
2023/03/21 05:41:22;;;;;;;106.65;43.42;;;;;;;8.49;100.00;101256.94;5006092;28;20049;-79
2023/03/21 05:43:48;;;;;;;94.65;40.67;;;;;;;8.51;100.00;101252.41;5016687;28;20158;-80
2023/03/21 05:46:15;;;;;;;96.95;41.33;;;;;;;8.53;100.00;101253.22;5007320;28;20072;-80
2023/03/21 05:48:41;;;;;;;95.97;40.83;;;;;;;8.54;100.00;101259.44;5029753;28;20048;-78
2023/03/21 05:51:13;;;;;;;98.57;40.17;;;;;;;8.54;100.00;101251.44;5008400;28;20033;-78
2023/03/21 05:53:40;;;;;;;93.55;41.20;;;;;;;8.56;100.00;101251.38;5009886;28;20029;-79
2023/03/21 05:56:07;;;;;;;91.43;40.03;;;;;;;8.54;100.00;101246.97;4999424;28;20038;-79
2023/03/21 05:58:52;;;;;;;91.47;39.17;;;;;;;8.56;100.00;101248.72;5008955;28;20073;-79
2023/03/21 06:01:20;;;;;;;80.18;37.30;;;;;;;8.57;100.00;101247.78;5019429;28;20046;-80
2023/03/21 06:03:55;;;;;;;69.95;33.58;;;;;;;8.57;100.00;101247.78;5004121;28;20046;-80
2023/03/21 06:06:23;;;;;;;81.20;34.13;;;;;;;8.58;100.00;101254.84;5020891;28;20037;-80
2023/03/21 06:08:53;;;;;;;84.38;35.08;;;;;;;8.59;100.00;101253.91;4988987;28;20052;-78
2023/03/21 06:11:31;;;;;;;75.18;33.85;;;;;;;8.62;100.00;101251.13;5006371;28;20099;-79
2023/03/21 06:14:15;;;;;;;75.60;33.60;;;;;;;8.58;100.00;101254.84;5030847;28;20120;-88
2023/03/21 06:16:42;;;;;;;79.93;35.47;;;;;;;8.60;100.00;101253.00;5014809;28;20053;-90
2023/03/21 06:19:09;;;;;;;86.22;35.00;;;;;;;8.61;100.00;101252.94;5018179;28;20075;-90
2023/03/21 06:22:15;;;;;;;82.47;33.42;;;;;;;8.66;100.00;101253.59;5037220;28;20045;-89
2023/03/21 06:25:03;;;;;;;81.22;33.70;;;;;;;8.65;100.00;101251.88;5005893;28;20072;-90
2023/03/21 06:27:30;;;;;;;74.43;34.33;;;;;;;8.63;100.00;101252.84;5021061;28;20026;-89
2023/03/21 06:29:59;;;;;;;76.03;35.50;;;;;;;8.64;100.00;101260.78;5015443;28;20045;-91
2023/03/21 06:32:26;;;;;;;78.97;33.13;;;;;;;8.67;100.00;101254.47;5027846;28;20465;-91
2023/03/21 06:34:57;;;;;;;69.50;33.20;;;;;;;8.71;100.00;101256.06;5011304;28;20061;-91
2023/03/21 06:37:25;;;;;;;69.82;31.98;;;;;;;8.72;100.00;101258.69;5021034;28;20083;-90
2023/03/21 06:39:54;;;;;;;69.03;30.60;;;;;;;8.77;100.00;101254.97;5039512;28;20056;-90
2023/03/21 06:42:21;;;;;;;63.00;29.42;;;;;;;8.80;100.00;101258.38;5013175;28;20087;-90
2023/03/21 06:44:48;;;;;;;66.70;29.17;;;;;;;8.80;100.00;101250.38;5010725;28;20459;-88
2023/03/21 06:47:16;;;;;;;60.00;28.00;;;;;;;8.77;100.00;101250.50;5026759;28;20037;-89
2023/03/21 06:49:44;;;;;;;68.47;28.55;;;;;;;8.75;100.00;101247.03;5018210;28;20037;-86
2023/03/21 06:52:12;;;;;;;55.90;27.20;;;;;;;8.76;100.00;101251.44;5002593;28;20403;-87
2023/03/21 06:54:39;;;;;;;61.03;27.33;;;;;;;8.75;100.00;101255.00;4995982;28;20406;-89
2023/03/21 06:57:12;;;;;;;57.53;26.27;;;;;;;8.75;100.00;101249.69;5007369;28;20048;-89
2023/03/21 06:59:45;;;;;;;56.45;25.77;;;;;;;8.77;100.00;101247.84;5016153;28;20044;-89
2023/03/21 07:02:20;;;;;;;55.95;25.55;;;;;;;8.79;100.00;101253.97;4996611;28;20065;-88
2023/03/21 07:05:09;;;;;;;56.58;24.55;;;;;;;8.80;100.00;101258.38;5017890;28;20043;-89
2023/03/21 07:07:36;;;;;;;48.08;24.25;;;;;;;8.82;100.00;101253.84;5024217;28;20052;-90
2023/03/21 07:10:03;;;;;;;54.35;23.55;;;;;;;8.83;100.00;101260.88;5029368;28;20103;-89
2023/03/21 07:12:35;;;;;;;52.13;22.40;;;;;;;8.84;100.00;101262.63;5020705;28;20391;-89
2023/03/21 07:15:22;;;;;;;48.97;22.98;;;;;;;8.86;100.00;101258.09;5011833;28;20518;-88
2023/03/21 07:17:49;;;;;;;48.10;21.98;;;;;;;8.88;100.00;101256.25;5011693;28;20124;-89
2023/03/21 07:20:16;;;;;;;47.38;21.55;;;;;;;8.87;100.00;101251.84;5013278;28;20192;-87
2023/03/21 07:22:42;;;;;;;47.08;21.85;;;;;;;8.88;100.00;101266.88;5009287;28;20042;-88
2023/03/21 07:25:09;;;;;;;49.40;23.73;;;;;;;8.88;100.00;101264.22;5021470;28;20467;-86
2023/03/21 07:27:43;;;;;;;53.40;21.40;;;;;;;8.91;100.00;101247.28;5031721;28;20096;-86
2023/03/21 07:30:13;;;;;;;49.40;21.17;;;;;;;8.94;100.00;101252.44;5028793;28;20093;-88
2023/03/21 07:32:39;;;;;;;53.47;22.05;;;;;;;8.97;100.00;101240.81;5030551;28;20499;-88
2023/03/21 07:35:09;;;;;;;54.10;22.35;;;;;;;8.98;100.00;101237.22;5028831;28;20351;-79
2023/03/21 07:37:35;;;;;;;51.35;22.20;;;;;;;8.98;100.00;101226.56;4995930;28;20048;-80
2023/03/21 07:40:06;;;;;;;44.38;20.23;;;;;;;9.00;100.00;101233.56;5027271;28;20442;-78
2023/03/21 07:42:34;;;;;;;46.05;20.10;;;;;;;9.01;100.00;101223.78;5008858;28;20096;-77
2023/03/21 07:45:01;;;;;;;49.35;21.63;;;;;;;9.01;100.00;101226.44;5027919;28;20539;-76
2023/03/21 07:47:32;;;;;;;53.35;20.80;;;;;;;9.00;100.00;101214.03;4996730;28;20040;-78
2023/03/21 07:49:59;;;;;;;49.17;20.55;;;;;;;8.99;100.00;101215.00;5026900;28;20045;-77
2023/03/21 07:52:26;;;;;;;56.08;21.85;;;;;;;9.01;100.00;101211.31;5021361;28;20116;-79
2023/03/21 07:54:52;;;;;;;47.28;20.48;;;;;;;9.00;100.00;101214.94;5027056;28;20128;-80
2023/03/21 07:57:18;;;;;;;42.53;19.73;;;;;;;9.02;100.00;101217.50;5035605;28;20076;-78
2023/03/21 07:59:45;;;;;;;45.08;21.90;;;;;;;9.07;100.00;101226.16;5027860;28;20061;-76
2023/03/21 08:02:17;;;;;;;49.03;21.90;;;;;;;9.14;100.00;101227.63;5032858;28;20034;-76
2023/03/21 08:05:03;;;;;;;48.22;21.48;;;;;;;9.21;100.00;101229.09;5032710;28;20040;-78
2023/03/21 08:07:29;;;;;;;51.10;21.88;;;;;;;9.29;100.00;101232.28;5032025;28;20064;-78
2023/03/21 08:09:56;;;;;;;44.45;21.48;;;;;;;9.32;100.00;101218.00;5023447;28;20026;-78
2023/03/21 08:12:22;;;;;;;44.58;21.90;;;;;;;9.35;100.00;101227.63;5022082;28;20168;-77
2023/03/21 08:14:49;;;;;;;43.42;21.00;;;;;;;9.36;100.00;101222.25;5029268;28;20124;-78
2023/03/21 08:17:16;;;;;;;41.38;21.77;;;;;;;9.41;100.00;101220.25;5035270;28;20128;-79
2023/03/21 08:19:45;;;;;;;48.90;20.63;;;;;;;9.40;100.00;101217.66;5037196;28;20417;-79
2023/03/21 08:22:11;;;;;;;39.58;20.20;;;;;;;9.37;100.00;101218.63;5052043;28;20048;-78
2023/03/21 08:24:38;;;;;;;42.05;19.70;;;;;;;9.36;100.00;101205.41;5032022;28;20062;-78
2023/03/21 08:27:04;;;;;;;47.15;19.80;;;;;;;9.43;100.00;101207.72;5032963;28;20053;-88
2023/03/21 08:29:31;;;;;;;48.38;19.95;;;;;;;9.47;100.00;101200.44;5016671;28;20099;-85
2023/03/21 08:31:57;;;;;;;39.08;18.98;;;;;;;9.47;100.00;101203.13;5033805;28;20076;-87
2023/03/21 08:34:23;;;;;;;40.75;18.60;;;;;;;9.51;100.00;101191.38;5021699;28;20042;-87
2023/03/21 08:36:50;;;;;;;43.15;18.85;;;;;;;9.50;100.00;101197.63;5025599;28;20041;-88
2023/03/21 08:39:16;;;;;;;36.03;17.25;;;;;;;9.53;100.00;101186.84;5009102;28;20055;-89
2023/03/21 08:41:43;;;;;;;32.55;16.63;;;;;;;9.56;100.00;101181.38;5023316;28;20049;-88
2023/03/21 08:44:10;;;;;;;43.38;17.30;;;;;;;9.59;100.00;101175.88;5037295;28;20037;-88
2023/03/21 08:46:36;;;;;;;33.38;14.63;;;;;;;9.60;100.00;101177.63;5020731;28;20037;-89
2023/03/21 08:49:03;;;;;;;38.42;14.52;;;;;;;9.60;100.00;101177.63;5021505;28;20431;-89
2023/03/21 08:51:30;;;;;;;33.28;14.48;;;;;;;9.58;100.00;101174.19;5028606;28;20085;-88
2023/03/21 08:53:56;;;;;;;36.55;15.25;;;;;;;9.64;100.00;101157.03;5014004;28;20040;-92
2023/03/21 08:56:23;;;;;;;30.98;15.73;;;;;;;9.68;100.00;101158.63;5024161;28;20532;-89
2023/03/21 08:58:49;;;;;;;34.78;15.40;;;;;;;9.72;100.00;101156.69;5047393;28;20033;-89
2023/03/21 09:01:20;;;;;;;30.40;14.00;;;;;;;9.77;100.00;101152.00;5011804;28;20054;-89
2023/03/21 09:03:46;;;;;;;;;;;;;;;9.86;100.00;101152.41;5035327;28;20037;-91
2023/03/21 09:06:14;;;;;;;26.42;13.75;;;;;;;9.95;100.00;101148.44;5032956;28;19920;-91
2023/03/21 09:08:42;;;;;;;31.67;14.50;;;;;;;10.01;100.00;101144.63;5037532;28;20040;-90
2023/03/21 09:11:10;;;;;;;28.20;13.63;;;;;;;10.12;100.00;101146.75;5024327;28;20029;-89
2023/03/21 09:13:36;;;;;;;28.25;13.98;;;;;;;10.19;100.00;101142.84;5036854;28;20072;-88
2023/03/21 09:16:03;;;;;;;32.88;13.52;;;;;;;10.26;100.00;101146.94;5002179;28;20053;-89
2023/03/21 09:18:49;;;;;;;28.75;11.90;;;;;;;10.29;100.00;101149.50;5033129;28;20041;-90
2023/03/21 09:21:54;;;;;;;27.60;10.73;;;;;;;10.34;100.00;101143.94;5036907;28;20075;-90
2023/03/21 09:24:20;;;;;;;25.58;11.45;;;;;;;10.35;100.00;101130.53;5020647;28;20033;-88
2023/03/21 09:26:49;;;;;;;23.23;10.75;;;;;;;10.41;100.00;101135.53;5012533;28;20037;-83
2023/03/21 09:29:17;;;;;;;22.75;11.38;;;;;;;10.44;100.00;101130.06;5012723;28;20125;-88
2023/03/21 09:31:45;;;;;;;22.98;10.45;;;;;;;10.55;100.00;101126.88;5013971;28;20033;-90
2023/03/21 09:34:14;;;;;;;23.48;10.55;;;;;;;10.66;100.00;101118.28;4997803;28;20048;-86
2023/03/21 09:36:42;;;;;;;22.48;11.90;;;;;;;10.76;100.00;101124.03;4997695;28;20042;-91
2023/03/21 09:39:10;;;;;;;28.00;11.10;;;;;;;10.82;100.00;101123.72;4997763;28;20045;-88
2023/03/21 09:41:55;;;;;;;21.02;11.18;;;;;;;10.95;100.00;101137.28;5013356;28;20128;-87
2023/03/21 09:45:00;;;;;;;22.08;11.45;;;;;;;11.00;100.00;101129.91;5020769;28;20477;-88
2023/03/21 09:47:33;;;;;;;28.05;12.57;;;;;;;11.03;100.00;101137.75;5033563;28;20124;-85
2023/03/21 09:50:16;;;;;;;26.48;12.30;;;;;;;11.08;100.00;101141.03;5033615;28;20087;-89
2023/03/21 09:52:57;;;;;;;25.98;11.40;;;;;;;11.17;100.00;101135.22;5031340;28;20483;-88
2023/03/21 09:55:25;;;;;;;27.90;11.68;;;;;;;11.12;100.00;101123.91;5032117;28;20103;-89
2023/03/21 09:58:03;;;;;;;23.05;11.10;;;;;;;11.14;100.00;101122.00;5032421;28;20037;-86
2023/03/21 10:00:38;;;;;;;21.52;11.20;;;;;;;11.32;100.00;101130.00;5032747;28;20049;-88
2023/03/21 10:03:23;;;;;;;21.20;10.73;;;;;;;11.40;100.00;101123.28;5033310;28;20045;-87
2023/03/21 10:05:51;;;;;;;25.63;11.30;;;;;;;11.44;100.00;101123.97;5037177;28;20040;-88
2023/03/21 10:08:36;;;;;;;24.75;11.40;;;;;;;11.61;100.00;101125.72;5052195;28;20079;-88
2023/03/21 10:11:28;;;;;;;21.30;11.50;;;;;;;11.67;100.00;101124.50;5053549;28;20065;-87
2023/03/21 10:14:07;;;;;;;28.00;11.30;;;;;;;11.63;100.00;101119.34;5028442;28;20079;-86
2023/03/21 10:16:42;;;;;;;28.67;11.60;;;;;;;11.60;100.00;101107.97;5040602;28;20041;-85
2023/03/21 10:19:14;;;;;;;23.20;11.98;;;;;;;11.69;100.00;101114.63;5032554;28;20084;-89
2023/03/21 10:21:44;;;;;;;28.73;11.60;;;;;;;11.62;100.00;101117.63;5032178;28;20026;-88
2023/03/21 10:24:24;;;;;;;23.33;11.48;;;;;;;11.61;100.00;101121.25;5031334;28;20041;-88
2023/03/21 10:26:53;;;;;;;25.13;11.40;;;;;;;11.63;100.00;101123.84;5032036;28;20327;-83
2023/03/21 10:29:29;;;;;;;28.35;11.68;;;;;;;11.68;100.00;101118.22;5030703;28;20033;-89
2023/03/21 10:31:58;;;;;;;27.88;10.93;;;;;;;11.77;100.00;101104.34;5031571;28;20109;-88
2023/03/21 10:34:31;;;;;;;21.10;10.50;;;;;;;11.80;100.00;101110.38;5032405;28;20106;-87
2023/03/21 10:37:00;;;;;;;17.70;10.60;;;;;;;11.93;100.00;101099.88;5032129;28;20036;-85
2023/03/21 10:39:27;;;;;;;23.05;9.80;;;;;;;12.02;100.00;101099.38;5019568;28;20037;-84
2023/03/21 10:41:53;;;;;;;17.77;10.43;;;;;;;12.15;100.00;101096.84;5026470;28;20033;-82
2023/03/21 10:44:20;;;;;;;31.10;10.90;;;;;;;12.23;100.00;101101.75;5030675;28;20041;-86
2023/03/21 10:46:58;;;;;;;21.95;10.65;;;;;;;12.29;100.00;101090.69;5030703;28;20513;-85
2023/03/21 10:49:25;;;;;;;20.33;9.88;;;;;;;12.24;100.00;101087.41;5013681;28;20099;-81
2023/03/21 10:52:05;;;;;;;29.60;10.73;;;;;;;12.26;100.00;101090.84;5029482;28;20046;-82
2023/03/21 10:54:36;;;;;;;19.95;10.65;;;;;;;12.28;100.00;101115.75;5029336;28;20025;-86
2023/03/21 10:57:06;;;;;;;;;;;;;;;12.10;100.00;101085.53;5012191;28;20200;-85
2023/03/21 10:59:46;;;;;;;21.15;10.43;;;;;;;12.09;100.00;101117.72;5011347;28;20387;-82
2023/03/21 11:02:33;;;;;;;19.60;10.27;;;;;;;11.96;100.00;101104.19;4997212;28;20025;-82
2023/03/21 11:05:32;;;;;;;22.17;10.80;;;;;;;12.08;100.00;101124.03;5030428;28;20060;-85
2023/03/21 11:08:19;;;;;;;20.33;11.80;;;;;;;12.10;100.00;101122.16;5016934;28;20498;-85
2023/03/21 11:10:54;;;;;;;25.02;10.70;;;;;;;12.08;100.00;101113.31;5019584;28;20037;-83
2023/03/21 11:13:25;;;;;;;20.90;10.65;;;;;;;12.15;100.00;101101.31;5030959;28;20029;-85
2023/03/21 11:15:57;;;;;;;25.52;10.48;;;;;;;12.22;100.00;101097.34;5031073;28;20033;-86
2023/03/21 11:18:31;;;;;;;23.83;11.07;;;;;;;12.45;100.00;101098.69;5031534;28;20071;-88
2023/03/21 11:21:05;;;;;;;25.17;11.07;;;;;;;12.51;100.00;101097.47;5017485;28;20038;-83
2023/03/21 11:23:34;;;;;;;20.60;10.98;;;;;;;12.56;100.00;101092.66;5012887;28;20112;-83
2023/03/21 11:26:02;;;;;;;24.75;12.18;;;;;;;12.66;100.00;101093.84;5042177;28;20115;-86
2023/03/21 11:28:43;;;;;;;23.27;9.77;;;;;;;12.63;100.00;101094.03;5008164;28;20042;-85
2023/03/21 11:31:10;;;;;;;21.83;10.77;;;;;;;12.69;100.00;101088.31;5019943;28;20037;-85